Apple Valley, Utah
Current Conditions -  °F | °C
As of 5:35 PM on Friday 19 Dec 2014 (Local Time) from KAZC Reporting Station
Clear Clear  
Wind Chill: 41°   Ceiling: Unl
Heat Index: 41°   Visibility: 10mi
Dew Point: 31°   Wind: 0mph
Humidity: 68%   Direction: NA
Pressure: 30.21"   Gusts: NA
Location:  37.2274°N, 113.139°W
Report Text: KAZC 200035Z AUTO 00000KT 10SM CLR 05/00 A3021 RMK AO2 T00511003
Loading
Personal Weather Stations






























Interactive Weather Map New forecast layout! Learn more

10-Day Weather Forecast

Advertisements
Track Severe Weather on mobile